sensor_id;sensor_type;location;lat;lon;timestamp;temperature;humidity
39021;DHT22;25188;51.958;5.842;2023-02-08T00:00:15;1.20;77.60
39021;DHT22;25188;51.958;5.842;2023-02-08T00:02:41;1.10;77.60
39021;DHT22;25188;51.958;5.842;2023-02-08T00:05:07;1.10;77.90
39021;DHT22;25188;51.958;5.842;2023-02-08T00:07:32;1.10;77.60
39021;DHT22;25188;51.958;5.842;2023-02-08T00:09:58;1.20;77.70
39021;DHT22;25188;51.958;5.842;2023-02-08T00:12:24;1.00;77.70
39021;DHT22;25188;51.958;5.842;2023-02-08T00:14:50;1.10;77.90
39021;DHT22;25188;51.958;5.842;2023-02-08T00:17:15;1.00;78.00
39021;DHT22;25188;51.958;5.842;2023-02-08T00:19:41;1.00;78.00
39021;DHT22;25188;51.958;5.842;2023-02-08T00:22:07;1.00;78.20
39021;DHT22;25188;51.958;5.842;2023-02-08T00:24:32;1.00;78.20
39021;DHT22;25188;51.958;5.842;2023-02-08T00:26:58;1.00;78.30
39021;DHT22;25188;51.958;5.842;2023-02-08T00:29:23;1.00;78.30
39021;DHT22;25188;51.958;5.842;2023-02-08T00:31:49;1.10;78.30
39021;DHT22;25188;51.958;5.842;2023-02-08T00:34:15;0.90;78.20
39021;DHT22;25188;51.958;5.842;2023-02-08T00:36:40;0.90;78.30
39021;DHT22;25188;51.958;5.842;2023-02-08T00:39:06;0.90;78.40
39021;DHT22;25188;51.958;5.842;2023-02-08T00:41:31;0.90;78.50
39021;DHT22;25188;51.958;5.842;2023-02-08T00:43:57;0.80;78.40
39021;DHT22;25188;51.958;5.842;2023-02-08T00:46:23;0.80;78.60
39021;DHT22;25188;51.958;5.842;2023-02-08T00:48:48;0.80;78.60
39021;DHT22;25188;51.958;5.842;2023-02-08T00:51:14;0.90;78.70
39021;DHT22;25188;51.958;5.842;2023-02-08T00:53:43;0.80;78.70
39021;DHT22;25188;51.958;5.842;2023-02-08T00:56:10;0.70;78.70
39021;DHT22;25188;51.958;5.842;2023-02-08T00:58:36;0.80;78.80
39021;DHT22;25188;51.958;5.842;2023-02-08T01:01:03;0.80;78.90
39021;DHT22;25188;51.958;5.842;2023-02-08T01:03:29;0.70;78.90
39021;DHT22;25188;51.958;5.842;2023-02-08T01:06:00;0.70;78.90
39021;DHT22;25188;51.958;5.842;2023-02-08T01:08:26;0.60;78.90
39021;DHT22;25188;51.958;5.842;2023-02-08T01:10:51;0.60;79.00
39021;DHT22;25188;51.958;5.842;2023-02-08T01:13:17;0.60;79.10
39021;DHT22;25188;51.958;5.842;2023-02-08T01:15:43;0.60;79.20
39021;DHT22;25188;51.958;5.842;2023-02-08T01:18:09;0.60;79.20
39021;DHT22;25188;51.958;5.842;2023-02-08T01:20:35;0.60;79.30
39021;DHT22;25188;51.958;5.842;2023-02-08T01:23:02;0.60;79.40
39021;DHT22;25188;51.958;5.842;2023-02-08T01:25:28;0.50;79.30
39021;DHT22;25188;51.958;5.842;2023-02-08T01:27:53;0.50;79.40
39021;DHT22;25188;51.958;5.842;2023-02-08T01:30:21;0.50;80.10
39021;DHT22;25188;51.958;5.842;2023-02-08T01:32:47;0.50;79.60
39021;DHT22;25188;51.958;5.842;2023-02-08T01:35:13;0.50;79.60
39021;DHT22;25188;51.958;5.842;2023-02-08T01:37:38;0.40;79.50
39021;DHT22;25188;51.958;5.842;2023-02-08T01:40:04;0.40;79.70
39021;DHT22;25188;51.958;5.842;2023-02-08T01:42:30;0.40;79.70
39021;DHT22;25188;51.958;5.842;2023-02-08T01:47:41;0.40;79.90
39021;DHT22;25188;51.958;5.842;2023-02-08T01:50:08;0.40;79.90
39021;DHT22;25188;51.958;5.842;2023-02-08T01:52:34;0.40;79.90
39021;DHT22;25188;51.958;5.842;2023-02-08T01:55:14;0.30;80.00
39021;DHT22;25188;51.958;5.842;2023-02-08T01:57:41;0.30;80.00
39021;DHT22;25188;51.958;5.842;2023-02-08T02:00:13;0.30;80.20
39021;DHT22;25188;51.958;5.842;2023-02-08T02:02:41;0.30;80.20
39021;DHT22;25188;51.958;5.842;2023-02-08T02:05:08;0.30;80.20
39021;DHT22;25188;51.958;5.842;2023-02-08T02:07:34;0.30;80.30
39021;DHT22;25188;51.958;5.842;2023-02-08T02:10:08;0.30;80.40
39021;DHT22;25188;51.958;5.842;2023-02-08T02:12:37;0.20;80.40
39021;DHT22;25188;51.958;5.842;2023-02-08T02:16:22;0.20;80.50
39021;DHT22;25188;51.958;5.842;2023-02-08T02:18:47;0.20;80.60
39021;DHT22;25188;51.958;5.842;2023-02-08T02:24:06;0.20;80.80
39021;DHT22;25188;51.958;5.842;2023-02-08T02:35:01;0.10;80.80
39021;DHT22;25188;51.958;5.842;2023-02-08T02:40:37;0.00;80.90
39021;DHT22;25188;51.958;5.842;2023-02-08T02:43:12;0.00;81.00
39021;DHT22;25188;51.958;5.842;2023-02-08T02:54:13;-0.10;81.00
39021;DHT22;25188;51.958;5.842;2023-02-08T02:56:43;-0.10;81.10
39021;DHT22;25188;51.958;5.842;2023-02-08T02:59:11;-0.10;81.20
39021;DHT22;25188;51.958;5.842;2023-02-08T03:01:39;-0.10;81.20
39021;DHT22;25188;51.958;5.842;2023-02-08T03:12:42;-0.10;81.60
39021;DHT22;25188;51.958;5.842;2023-02-08T03:21:02;-0.10;81.80
39021;DHT22;25188;51.958;5.842;2023-02-08T03:26:50;-0.10;81.70
39021;DHT22;25188;51.958;5.842;2023-02-08T03:31:57;-0.20;81.70
39021;DHT22;25188;51.958;5.842;2023-02-08T03:34:42;-0.20;81.70
39021;DHT22;25188;51.958;5.842;2023-02-08T03:37:14;-0.20;81.80
39021;DHT22;25188;51.958;5.842;2023-02-08T03:39:42;-0.20;81.90
39021;DHT22;25188;51.958;5.842;2023-02-08T03:42:15;-0.10;82.00
39021;DHT22;25188;51.958;5.842;2023-02-08T03:44:46;-0.30;82.00
39021;DHT22;25188;51.958;5.842;2023-02-08T03:47:20;-0.20;82.10
39021;DHT22;25188;51.958;5.842;2023-02-08T03:49:49;-0.30;82.10
39021;DHT22;25188;51.958;5.842;2023-02-08T03:52:16;-0.30;82.10
39021;DHT22;25188;51.958;5.842;2023-02-08T03:54:54;-0.30;82.20
39021;DHT22;25188;51.958;5.842;2023-02-08T03:57:30;-0.30;82.30
39021;DHT22;25188;51.958;5.842;2023-02-08T04:00:06;-0.30;82.40
39021;DHT22;25188;51.958;5.842;2023-02-08T04:02:36;-0.30;82.40
39021;DHT22;25188;51.958;5.842;2023-02-08T04:05:04;-0.30;82.40
39021;DHT22;25188;51.958;5.842;2023-02-08T04:07:30;-0.40;82.40
39021;DHT22;25188;51.958;5.842;2023-02-08T04:09:56;-0.40;82.60
39021;DHT22;25188;51.958;5.842;2023-02-08T04:12:22;-0.40;82.60
39021;DHT22;25188;51.958;5.842;2023-02-08T04:14:48;-0.40;82.60
39021;DHT22;25188;51.958;5.842;2023-02-08T04:17:13;-0.40;82.60
39021;DHT22;25188;51.958;5.842;2023-02-08T04:19:39;-0.40;82.70
39021;DHT22;25188;51.958;5.842;2023-02-08T04:22:05;-0.40;82.70
39021;DHT22;25188;51.958;5.842;2023-02-08T04:24:31;-0.40;82.60
39021;DHT22;25188;51.958;5.842;2023-02-08T04:26:56;-0.40;82.60
39021;DHT22;25188;51.958;5.842;2023-02-08T04:29:22;-0.40;82.70
39021;DHT22;25188;51.958;5.842;2023-02-08T04:31:48;-0.40;82.80
39021;DHT22;25188;51.958;5.842;2023-02-08T04:34:13;-0.40;82.80
39021;DHT22;25188;51.958;5.842;2023-02-08T04:36:39;-0.40;82.80
39021;DHT22;25188;51.958;5.842;2023-02-08T04:39:05;-0.50;82.80
39021;DHT22;25188;51.958;5.842;2023-02-08T04:41:30;-0.50;82.90
39021;DHT22;25188;51.958;5.842;2023-02-08T04:43:56;-0.50;83.00
39021;DHT22;25188;51.958;5.842;2023-02-08T04:46:21;-0.50;83.10
39021;DHT22;25188;51.958;5.842;2023-02-08T04:48:47;-0.40;83.20
39021;DHT22;25188;51.958;5.842;2023-02-08T04:51:13;-0.50;83.20
39021;DHT22;25188;51.958;5.842;2023-02-08T04:53:38;-0.50;83.30
39021;DHT22;25188;51.958;5.842;2023-02-08T04:56:04;-0.50;83.40
39021;DHT22;25188;51.958;5.842;2023-02-08T04:58:30;-0.50;83.40
39021;DHT22;25188;51.958;5.842;2023-02-08T05:00:55;-0.50;83.40
39021;DHT22;25188;51.958;5.842;2023-02-08T05:03:21;-0.60;83.40
39021;DHT22;25188;51.958;5.842;2023-02-08T05:05:55;-0.60;83.50
39021;DHT22;25188;51.958;5.842;2023-02-08T05:08:21;-0.60;83.50
39021;DHT22;25188;51.958;5.842;2023-02-08T05:10:47;-0.60;83.40
39021;DHT22;25188;51.958;5.842;2023-02-08T05:13:13;-0.60;83.40
39021;DHT22;25188;51.958;5.842;2023-02-08T05:15:38;-0.70;83.50
39021;DHT22;25188;51.958;5.842;2023-02-08T05:18:04;-0.70;83.50
39021;DHT22;25188;51.958;5.842;2023-02-08T05:20:29;-0.70;83.50
39021;DHT22;25188;51.958;5.842;2023-02-08T05:22:56;-0.70;83.60
39021;DHT22;25188;51.958;5.842;2023-02-08T05:25:21;-0.70;83.70
39021;DHT22;25188;51.958;5.842;2023-02-08T05:27:47;-0.70;83.80
39021;DHT22;25188;51.958;5.842;2023-02-08T05:30:13;-0.70;83.80
39021;DHT22;25188;51.958;5.842;2023-02-08T05:32:38;-0.70;83.80
39021;DHT22;25188;51.958;5.842;2023-02-08T05:35:04;-0.70;83.80
39021;DHT22;25188;51.958;5.842;2023-02-08T05:37:30;-0.70;83.80
39021;DHT22;25188;51.958;5.842;2023-02-08T05:39:55;-0.70;83.80
39021;DHT22;25188;51.958;5.842;2023-02-08T05:42:21;-0.70;84.00
39021;DHT22;25188;51.958;5.842;2023-02-08T05:44:47;-0.70;83.90
39021;DHT22;25188;51.958;5.842;2023-02-08T05:47:12;-0.70;83.90
39021;DHT22;25188;51.958;5.842;2023-02-08T05:49:38;-0.70;83.80
39021;DHT22;25188;51.958;5.842;2023-02-08T05:52:04;-0.60;83.90
39021;DHT22;25188;51.958;5.842;2023-02-08T05:54:29;-0.70;83.80
39021;DHT22;25188;51.958;5.842;2023-02-08T05:56:55;-0.60;83.90
39021;DHT22;25188;51.958;5.842;2023-02-08T05:59:20;-0.60;83.90
39021;DHT22;25188;51.958;5.842;2023-02-08T06:01:46;-0.70;83.80
39021;DHT22;25188;51.958;5.842;2023-02-08T06:04:12;-0.60;83.90
39021;DHT22;25188;51.958;5.842;2023-02-08T06:06:37;-0.70;83.80
39021;DHT22;25188;51.958;5.842;2023-02-08T06:09:03;-0.70;83.80
39021;DHT22;25188;51.958;5.842;2023-02-08T06:11:29;-0.70;83.80
39021;DHT22;25188;51.958;5.842;2023-02-08T06:13:55;-0.70;83.80
39021;DHT22;25188;51.958;5.842;2023-02-08T06:16:20;-0.70;83.80
39021;DHT22;25188;51.958;5.842;2023-02-08T06:18:46;-0.70;83.80
39021;DHT22;25188;51.958;5.842;2023-02-08T06:21:12;-0.70;83.80
39021;DHT22;25188;51.958;5.842;2023-02-08T06:23:37;-0.80;83.80
39021;DHT22;25188;51.958;5.842;2023-02-08T06:26:03;-0.70;84.00
39021;DHT22;25188;51.958;5.842;2023-02-08T06:28:29;-0.80;84.00
39021;DHT22;25188;51.958;5.842;2023-02-08T06:30:54;-0.70;84.10
39021;DHT22;25188;51.958;5.842;2023-02-08T06:33:20;-0.80;84.00
39021;DHT22;25188;51.958;5.842;2023-02-08T06:35:46;-0.80;84.10
39021;DHT22;25188;51.958;5.842;2023-02-08T06:38:13;-0.80;84.20
39021;DHT22;25188;51.958;5.842;2023-02-08T06:40:39;-0.80;84.20
39021;DHT22;25188;51.958;5.842;2023-02-08T06:43:04;-0.80;84.30
39021;DHT22;25188;51.958;5.842;2023-02-08T06:45:30;-0.80;84.30
39021;DHT22;25188;51.958;5.842;2023-02-08T06:47:56;-0.80;84.40
39021;DHT22;25188;51.958;5.842;2023-02-08T06:50:21;-0.80;84.50
39021;DHT22;25188;51.958;5.842;2023-02-08T06:52:47;-0.90;84.40
39021;DHT22;25188;51.958;5.842;2023-02-08T06:55:13;-0.80;84.50
39021;DHT22;25188;51.958;5.842;2023-02-08T06:57:38;-0.90;84.50
39021;DHT22;25188;51.958;5.842;2023-02-08T07:00:05;-0.80;84.60
39021;DHT22;25188;51.958;5.842;2023-02-08T07:02:31;-0.90;84.60
39021;DHT22;25188;51.958;5.842;2023-02-08T07:04:57;-0.90;84.70
39021;DHT22;25188;51.958;5.842;2023-02-08T07:07:22;-0.90;84.80
39021;DHT22;25188;51.958;5.842;2023-02-08T07:09:48;-0.90;84.80
39021;DHT22;25188;51.958;5.842;2023-02-08T07:12:14;-0.80;84.90
39021;DHT22;25188;51.958;5.842;2023-02-08T07:14:41;-0.90;85.00
39021;DHT22;25188;51.958;5.842;2023-02-08T07:17:07;-0.90;85.10
39021;DHT22;25188;51.958;5.842;2023-02-08T07:19:33;-0.90;85.20
39021;DHT22;25188;51.958;5.842;2023-02-08T07:21:59;-0.80;85.20
39021;DHT22;25188;51.958;5.842;2023-02-08T07:24:34;-0.80;85.30
39021;DHT22;25188;51.958;5.842;2023-02-08T07:27:00;-0.80;85.30
39021;DHT22;25188;51.958;5.842;2023-02-08T07:29:28;-0.80;85.30
39021;DHT22;25188;51.958;5.842;2023-02-08T07:31:54;-0.80;85.30
39021;DHT22;25188;51.958;5.842;2023-02-08T07:34:19;-0.80;85.40
39021;DHT22;25188;51.958;5.842;2023-02-08T07:36:47;-0.70;85.50
39021;DHT22;25188;51.958;5.842;2023-02-08T07:39:13;-0.80;85.60
39021;DHT22;25188;51.958;5.842;2023-02-08T07:41:39;-0.70;85.80
39021;DHT22;25188;51.958;5.842;2023-02-08T07:44:05;-0.70;85.80
39021;DHT22;25188;51.958;5.842;2023-02-08T07:46:30;-0.70;85.90
39021;DHT22;25188;51.958;5.842;2023-02-08T07:48:56;-0.70;85.90
39021;DHT22;25188;51.958;5.842;2023-02-08T07:51:22;-0.70;86.00
39021;DHT22;25188;51.958;5.842;2023-02-08T07:53:48;-0.60;86.10
39021;DHT22;25188;51.958;5.842;2023-02-08T07:56:13;-0.60;86.20
39021;DHT22;25188;51.958;5.842;2023-02-08T07:58:39;-0.60;86.30
39021;DHT22;25188;51.958;5.842;2023-02-08T08:01:05;-0.50;86.30
39021;DHT22;25188;51.958;5.842;2023-02-08T08:03:31;-0.50;86.30
39021;DHT22;25188;51.958;5.842;2023-02-08T08:05:56;-0.40;86.30
39021;DHT22;25188;51.958;5.842;2023-02-08T08:08:22;-0.40;86.40
39021;DHT22;25188;51.958;5.842;2023-02-08T08:10:47;-0.40;86.50
39021;DHT22;25188;51.958;5.842;2023-02-08T08:13:13;-0.40;86.40
39021;DHT22;25188;51.958;5.842;2023-02-08T08:15:39;-0.30;86.50
39021;DHT22;25188;51.958;5.842;2023-02-08T08:18:05;-0.30;86.50
39021;DHT22;25188;51.958;5.842;2023-02-08T08:20:31;-0.20;86.60
39021;DHT22;25188;51.958;5.842;2023-02-08T08:22:57;-0.20;86.60
39021;DHT22;25188;51.958;5.842;2023-02-08T08:25:23;-0.20;86.60
39021;DHT22;25188;51.958;5.842;2023-02-08T08:27:48;-0.10;86.60
39021;DHT22;25188;51.958;5.842;2023-02-08T08:30:15;-0.10;87.20
39021;DHT22;25188;51.958;5.842;2023-02-08T08:32:41;0.00;86.60
39021;DHT22;25188;51.958;5.842;2023-02-08T08:35:07;0.00;86.60
39021;DHT22;25188;51.958;5.842;2023-02-08T08:37:33;0.10;86.70
39021;DHT22;25188;51.958;5.842;2023-02-08T08:39:59;0.10;86.70
39021;DHT22;25188;51.958;5.842;2023-02-08T08:42:25;0.30;86.80
39021;DHT22;25188;51.958;5.842;2023-02-08T08:44:51;0.20;86.60
39021;DHT22;25188;51.958;5.842;2023-02-08T08:47:17;0.40;86.70
39021;DHT22;25188;51.958;5.842;2023-02-08T08:49:43;0.30;86.60
39021;DHT22;25188;51.958;5.842;2023-02-08T08:52:09;0.40;86.60
39021;DHT22;25188;51.958;5.842;2023-02-08T08:54:35;0.50;86.60
39021;DHT22;25188;51.958;5.842;2023-02-08T08:57:02;0.50;86.50
39021;DHT22;25188;51.958;5.842;2023-02-08T08:59:27;0.70;86.40
39021;DHT22;25188;51.958;5.842;2023-02-08T09:01:53;0.70;86.20
39021;DHT22;25188;51.958;5.842;2023-02-08T09:04:19;0.80;86.00
39021;DHT22;25188;51.958;5.842;2023-02-08T09:06:51;0.90;85.80
39021;DHT22;25188;51.958;5.842;2023-02-08T09:09:17;0.90;85.70
39021;DHT22;25188;51.958;5.842;2023-02-08T09:11:44;0.90;85.60
39021;DHT22;25188;51.958;5.842;2023-02-08T09:14:10;1.10;85.60
39021;DHT22;25188;51.958;5.842;2023-02-08T09:16:35;1.10;85.40
39021;DHT22;25188;51.958;5.842;2023-02-08T09:19:03;1.20;85.90
39021;DHT22;25188;51.958;5.842;2023-02-08T09:21:29;1.30;85.20
39021;DHT22;25188;51.958;5.842;2023-02-08T09:23:54;1.40;84.90
39021;DHT22;25188;51.958;5.842;2023-02-08T09:26:21;1.40;84.60
39021;DHT22;25188;51.958;5.842;2023-02-08T09:28:46;1.50;84.40
39021;DHT22;25188;51.958;5.842;2023-02-08T09:31:18;1.60;84.00
39021;DHT22;25188;51.958;5.842;2023-02-08T09:33:45;1.70;83.50
39021;DHT22;25188;51.958;5.842;2023-02-08T09:36:11;1.80;83.40
39021;DHT22;25188;51.958;5.842;2023-02-08T09:38:37;1.90;83.40
39021;DHT22;25188;51.958;5.842;2023-02-08T09:46:21;2.10;83.20
39021;DHT22;25188;51.958;5.842;2023-02-08T09:48:50;2.20;82.60
39021;DHT22;25188;51.958;5.842;2023-02-08T09:51:50;2.40;82.80
39021;DHT22;25188;51.958;5.842;2023-02-08T09:54:30;2.60;82.90
39021;DHT22;25188;51.958;5.842;2023-02-08T09:56:58;2.80;82.70
39021;DHT22;25188;51.958;5.842;2023-02-08T09:59:28;3.00;82.60
39021;DHT22;25188;51.958;5.842;2023-02-08T10:02:03;3.40;82.60
39021;DHT22;25188;51.958;5.842;2023-02-08T10:07:17;4.40;83.20
39021;DHT22;25188;51.958;5.842;2023-02-08T10:09:43;5.10;83.70
39021;DHT22;25188;51.958;5.842;2023-02-08T10:12:24;5.70;83.30
39021;DHT22;25188;51.958;5.842;2023-02-08T10:36:47;13.90;69.90
39021;DHT22;25188;51.958;5.842;2023-02-08T10:39:18;14.40;68.00
39021;DHT22;25188;51.958;5.842;2023-02-08T10:41:45;14.90;64.90
39021;DHT22;25188;51.958;5.842;2023-02-08T10:44:20;15.50;62.90
39021;DHT22;25188;51.958;5.842;2023-02-08T10:47:06;16.00;60.20
39021;DHT22;25188;51.958;5.842;2023-02-08T10:49:46;16.40;58.50
39021;DHT22;25188;51.958;5.842;2023-02-08T10:52:14;16.90;56.90
39021;DHT22;25188;51.958;5.842;2023-02-08T10:54:40;17.40;54.90
39021;DHT22;25188;51.958;5.842;2023-02-08T10:57:21;17.60;54.30
39021;DHT22;25188;51.958;5.842;2023-02-08T10:59:50;17.90;52.10
39021;DHT22;25188;51.958;5.842;2023-02-08T11:02:25;18.20;50.20
39021;DHT22;25188;51.958;5.842;2023-02-08T11:05:12;18.30;48.10
39021;DHT22;25188;51.958;5.842;2023-02-08T11:07:38;18.60;46.60
39021;DHT22;25188;51.958;5.842;2023-02-08T11:10:24;18.80;46.40
39021;DHT22;25188;51.958;5.842;2023-02-08T11:18:30;19.60;44.20
39021;DHT22;25188;51.958;5.842;2023-02-08T11:21:08;19.90;43.70
39021;DHT22;25188;51.958;5.842;2023-02-08T11:23:41;20.20;43.40
39021;DHT22;25188;51.958;5.842;2023-02-08T11:26:32;20.40;43.30
39021;DHT22;25188;51.958;5.842;2023-02-08T11:29:29;20.70;42.30
39021;DHT22;25188;51.958;5.842;2023-02-08T11:32:03;21.00;41.40
39021;DHT22;25188;51.958;5.842;2023-02-08T11:34:38;21.40;41.80
39021;DHT22;25188;51.958;5.842;2023-02-08T11:37:14;21.70;41.20
39021;DHT22;25188;51.958;5.842;2023-02-08T11:39:52;21.90;40.10
39021;DHT22;25188;51.958;5.842;2023-02-08T11:44:47;22.50;39.30
39021;DHT22;25188;51.958;5.842;2023-02-08T11:47:16;22.70;38.70
39021;DHT22;25188;51.958;5.842;2023-02-08T11:49:50;22.90;37.40
39021;DHT22;25188;51.958;5.842;2023-02-08T11:52:25;23.10;36.60
39021;DHT22;25188;51.958;5.842;2023-02-08T11:54:53;23.30;35.60
39021;DHT22;25188;51.958;5.842;2023-02-08T11:57:22;23.40;35.60
39021;DHT22;25188;51.958;5.842;2023-02-08T11:59:51;23.60;34.90
39021;DHT22;25188;51.958;5.842;2023-02-08T12:02:35;23.80;34.00
39021;DHT22;25188;51.958;5.842;2023-02-08T12:05:01;23.90;33.40
39021;DHT22;25188;51.958;5.842;2023-02-08T12:15:45;24.30;31.60
39021;DHT22;25188;51.958;5.842;2023-02-08T12:21:18;24.50;30.90
39021;DHT22;25188;51.958;5.842;2023-02-08T12:23:59;24.60;30.10
39021;DHT22;25188;51.958;5.842;2023-02-08T12:29:52;24.70;29.40
39021;DHT22;25188;51.958;5.842;2023-02-08T12:32:35;24.80;29.50
39021;DHT22;25188;51.958;5.842;2023-02-08T12:35:50;24.80;29.40
39021;DHT22;25188;51.958;5.842;2023-02-08T12:41:17;25.10;28.80
39021;DHT22;25188;51.958;5.842;2023-02-08T12:44:06;25.10;28.80
39021;DHT22;25188;51.958;5.842;2023-02-08T12:52:25;25.20;28.00
39021;DHT22;25188;51.958;5.842;2023-02-08T12:55:05;25.30;27.80
39021;DHT22;25188;51.958;5.842;2023-02-08T12:57:37;25.30;27.90
39021;DHT22;25188;51.958;5.842;2023-02-08T13:00:23;25.40;27.70
39021;DHT22;25188;51.958;5.842;2023-02-08T13:05:36;25.40;27.20
39021;DHT22;25188;51.958;5.842;2023-02-08T13:08:29;25.30;27.00
39021;DHT22;25188;51.958;5.842;2023-02-08T13:10:59;25.30;26.80
39021;DHT22;25188;51.958;5.842;2023-02-08T13:13:29;25.30;26.80
39021;DHT22;25188;51.958;5.842;2023-02-08T13:16:20;25.20;27.00
39021;DHT22;25188;51.958;5.842;2023-02-08T13:21:35;25.50;27.00
39021;DHT22;25188;51.958;5.842;2023-02-08T13:24:18;25.50;26.80
39021;DHT22;25188;51.958;5.842;2023-02-08T13:26:46;25.60;26.70
39021;DHT22;25188;51.958;5.842;2023-02-08T13:29:17;25.70;26.70
39021;DHT22;25188;51.958;5.842;2023-02-08T13:31:57;25.70;26.50
39021;DHT22;25188;51.958;5.842;2023-02-08T13:36:59;25.50;25.90
39021;DHT22;25188;51.958;5.842;2023-02-08T13:39:41;25.40;25.80
39021;DHT22;25188;51.958;5.842;2023-02-08T13:42:37;25.30;25.80
39021;DHT22;25188;51.958;5.842;2023-02-08T13:45:07;25.30;25.90
39021;DHT22;25188;51.958;5.842;2023-02-08T13:47:57;25.30;25.80
39021;DHT22;25188;51.958;5.842;2023-02-08T13:50:47;25.30;26.00
39021;DHT22;25188;51.958;5.842;2023-02-08T13:53:15;25.40;25.90
39021;DHT22;25188;51.958;5.842;2023-02-08T13:55:54;25.50;26.00
39021;DHT22;25188;51.958;5.842;2023-02-08T14:02:09;25.40;25.70
39021;DHT22;25188;51.958;5.842;2023-02-08T14:09:22;25.50;25.70
39021;DHT22;25188;51.958;5.842;2023-02-08T14:14:36;25.80;25.90
39021;DHT22;25188;51.958;5.842;2023-02-08T14:17:08;25.90;25.90
39021;DHT22;25188;51.958;5.842;2023-02-08T14:19:41;25.90;25.70
39021;DHT22;25188;51.958;5.842;2023-02-08T14:32:34;25.70;25.70
39021;DHT22;25188;51.958;5.842;2023-02-08T14:37:39;25.70;25.70
39021;DHT22;25188;51.958;5.842;2023-02-08T14:42:57;25.60;25.50
39021;DHT22;25188;51.958;5.842;2023-02-08T14:45:34;25.50;25.40
39021;DHT22;25188;51.958;5.842;2023-02-08T14:48:27;25.20;25.10
39021;DHT22;25188;51.958;5.842;2023-02-08T14:59:01;24.70;25.00
39021;DHT22;25188;51.958;5.842;2023-02-08T15:03:57;24.10;25.50
39021;DHT22;25188;51.958;5.842;2023-02-08T15:09:11;23.70;25.50
39021;DHT22;25188;51.958;5.842;2023-02-08T15:11:38;23.50;25.60
39021;DHT22;25188;51.958;5.842;2023-02-08T15:14:05;23.00;25.70
39021;DHT22;25188;51.958;5.842;2023-02-08T15:16:35;22.60;25.80
39021;DHT22;25188;51.958;5.842;2023-02-08T15:19:02;22.10;25.90
39021;DHT22;25188;51.958;5.842;2023-02-08T15:21:30;21.70;26.20
39021;DHT22;25188;51.958;5.842;2023-02-08T15:24:02;21.40;26.60
39021;DHT22;25188;51.958;5.842;2023-02-08T15:26:28;21.10;26.40
39021;DHT22;25188;51.958;5.842;2023-02-08T15:28:54;20.60;26.40
39021;DHT22;25188;51.958;5.842;2023-02-08T15:31:23;19.90;26.60
39021;DHT22;25188;51.958;5.842;2023-02-08T15:33:52;19.30;27.00
39021;DHT22;25188;51.958;5.842;2023-02-08T15:36:24;18.70;27.40
39021;DHT22;25188;51.958;5.842;2023-02-08T15:38:50;18.20;27.90
39021;DHT22;25188;51.958;5.842;2023-02-08T15:41:28;17.70;28.20
39021;DHT22;25188;51.958;5.842;2023-02-08T15:44:04;17.40;28.60
39021;DHT22;25188;51.958;5.842;2023-02-08T15:46:37;17.10;29.00
39021;DHT22;25188;51.958;5.842;2023-02-08T15:49:04;16.80;29.30
39021;DHT22;25188;51.958;5.842;2023-02-08T15:51:30;16.50;29.60
39021;DHT22;25188;51.958;5.842;2023-02-08T15:53:57;16.10;29.70
39021;DHT22;25188;51.958;5.842;2023-02-08T15:56:28;15.70;30.10
39021;DHT22;25188;51.958;5.842;2023-02-08T15:58:56;15.30;30.50
39021;DHT22;25188;51.958;5.842;2023-02-08T16:01:23;14.90;30.90
39021;DHT22;25188;51.958;5.842;2023-02-08T16:03:54;14.50;31.20
39021;DHT22;25188;51.958;5.842;2023-02-08T16:06:27;14.20;31.60
39021;DHT22;25188;51.958;5.842;2023-02-08T16:08:56;13.90;31.90
39021;DHT22;25188;51.958;5.842;2023-02-08T16:11:26;13.50;32.40
39021;DHT22;25188;51.958;5.842;2023-02-08T16:13:56;13.20;32.70
39021;DHT22;25188;51.958;5.842;2023-02-08T16:21:39;12.60;34.00
39021;DHT22;25188;51.958;5.842;2023-02-08T16:29:29;12.00;35.00
39021;DHT22;25188;51.958;5.842;2023-02-08T16:32:31;11.80;35.00
39021;DHT22;25188;51.958;5.842;2023-02-08T16:34:58;11.50;35.40
39021;DHT22;25188;51.958;5.842;2023-02-08T16:37:33;11.30;35.50
39021;DHT22;25188;51.958;5.842;2023-02-08T16:40:06;11.20;36.00
39021;DHT22;25188;51.958;5.842;2023-02-08T16:42:39;10.90;36.40
39021;DHT22;25188;51.958;5.842;2023-02-08T16:45:12;10.80;36.50
39021;DHT22;25188;51.958;5.842;2023-02-08T16:47:53;10.60;36.90
39021;DHT22;25188;51.958;5.842;2023-02-08T16:50:25;10.50;37.30
39021;DHT22;25188;51.958;5.842;2023-02-08T16:52:58;10.30;37.40
39021;DHT22;25188;51.958;5.842;2023-02-08T16:55:26;10.10;37.90
39021;DHT22;25188;51.958;5.842;2023-02-08T16:57:55;10.00;38.30
39021;DHT22;25188;51.958;5.842;2023-02-08T17:00:30;9.90;38.40
39021;DHT22;25188;51.958;5.842;2023-02-08T17:02:56;9.80;38.60
39021;DHT22;25188;51.958;5.842;2023-02-08T17:05:29;9.60;38.70
39021;DHT22;25188;51.958;5.842;2023-02-08T17:07:55;9.50;39.10
39021;DHT22;25188;51.958;5.842;2023-02-08T17:10:30;9.40;39.10
39021;DHT22;25188;51.958;5.842;2023-02-08T17:12:56;9.30;39.40
39021;DHT22;25188;51.958;5.842;2023-02-08T17:15:23;9.20;39.60
39021;DHT22;25188;51.958;5.842;2023-02-08T17:17:50;9.00;39.80
39021;DHT22;25188;51.958;5.842;2023-02-08T17:20:25;9.00;40.50
39021;DHT22;25188;51.958;5.842;2023-02-08T17:22:54;8.80;40.60
39021;DHT22;25188;51.958;5.842;2023-02-08T17:25:20;8.80;41.00
39021;DHT22;25188;51.958;5.842;2023-02-08T17:27:51;8.70;41.30
39021;DHT22;25188;51.958;5.842;2023-02-08T17:30:27;8.60;41.60
39021;DHT22;25188;51.958;5.842;2023-02-08T17:32:53;8.40;41.70
39021;DHT22;25188;51.958;5.842;2023-02-08T17:35:24;8.30;41.80
39021;DHT22;25188;51.958;5.842;2023-02-08T17:37:51;8.20;41.90
39021;DHT22;25188;51.958;5.842;2023-02-08T17:40:19;8.10;42.20
39021;DHT22;25188;51.958;5.842;2023-02-08T17:42:44;8.00;42.70
39021;DHT22;25188;51.958;5.842;2023-02-08T17:45:10;7.90;43.40
39021;DHT22;25188;51.958;5.842;2023-02-08T17:47:36;7.80;43.90
39021;DHT22;25188;51.958;5.842;2023-02-08T17:50:10;7.70;44.20
39021;DHT22;25188;51.958;5.842;2023-02-08T17:52:36;7.60;44.40
39021;DHT22;25188;51.958;5.842;2023-02-08T17:55:04;7.60;44.50
39021;DHT22;25188;51.958;5.842;2023-02-08T17:57:31;7.50;44.70
39021;DHT22;25188;51.958;5.842;2023-02-08T17:59:58;7.40;45.20
39021;DHT22;25188;51.958;5.842;2023-02-08T18:02:23;7.30;45.70
39021;DHT22;25188;51.958;5.842;2023-02-08T18:04:49;7.20;45.80
39021;DHT22;25188;51.958;5.842;2023-02-08T18:07:15;7.20;45.90
39021;DHT22;25188;51.958;5.842;2023-02-08T18:09:40;7.00;46.10
39021;DHT22;25188;51.958;5.842;2023-02-08T18:12:06;7.00;46.40
39021;DHT22;25188;51.958;5.842;2023-02-08T18:14:32;6.90;46.80
39021;DHT22;25188;51.958;5.842;2023-02-08T18:16:58;6.90;46.90
39021;DHT22;25188;51.958;5.842;2023-02-08T18:19:23;6.80;46.70
39021;DHT22;25188;51.958;5.842;2023-02-08T18:21:49;6.70;46.80
39021;DHT22;25188;51.958;5.842;2023-02-08T18:24:15;6.70;46.70
39021;DHT22;25188;51.958;5.842;2023-02-08T18:26:41;6.60;46.70
39021;DHT22;25188;51.958;5.842;2023-02-08T18:29:08;6.50;46.90
39021;DHT22;25188;51.958;5.842;2023-02-08T18:31:35;6.50;47.10
39021;DHT22;25188;51.958;5.842;2023-02-08T18:34:02;6.40;47.10
39021;DHT22;25188;51.958;5.842;2023-02-08T18:36:28;6.30;47.20